sensor_id;sensor_type;location;lat;lon;timestamp;temperature;humidity
9808;DHT22;4943;52.550;13.462;2022-09-12T00:01:21;16.60;99.90
9808;DHT22;4943;52.550;13.462;2022-09-12T00:03:53;16.60;99.90
9808;DHT22;4943;52.550;13.462;2022-09-12T00:06:25;16.50;99.90
9808;DHT22;4943;52.550;13.462;2022-09-12T00:08:55;16.50;99.90
9808;DHT22;4943;52.550;13.462;2022-09-12T00:11:24;16.50;99.90
9808;DHT22;4943;52.550;13.462;2022-09-12T00:13:55;16.50;99.90
9808;DHT22;4943;52.550;13.462;2022-09-12T00:16:25;16.40;99.90
9808;DHT22;4943;52.550;13.462;2022-09-12T00:18:56;16.40;99.90
9808;DHT22;4943;52.550;13.462;2022-09-12T00:21:24;16.40;99.90
9808;DHT22;4943;52.550;13.462;2022-09-12T00:23:53;16.40;99.90
9808;DHT22;4943;52.550;13.462;2022-09-12T00:26:21;16.40;99.90
9808;DHT22;4943;52.550;13.462;2022-09-12T00:28:49;16.40;99.90
9808;DHT22;4943;52.550;13.462;2022-09-12T00:31:20;16.40;99.90
9808;DHT22;4943;52.550;13.462;2022-09-12T00:33:50;16.30;99.90
9808;DHT22;4943;52.550;13.462;2022-09-12T00:36:21;16.30;99.90
9808;DHT22;4943;52.550;13.462;2022-09-12T00:38:49;16.30;99.90
9808;DHT22;4943;52.550;13.462;2022-09-12T00:41:20;16.30;99.90
9808;DHT22;4943;52.550;13.462;2022-09-12T00:43:49;16.20;99.90
9808;DHT22;4943;52.550;13.462;2022-09-12T00:46:27;16.20;99.90
9808;DHT22;4943;52.550;13.462;2022-09-12T00:49:00;16.20;99.90
9808;DHT22;4943;52.550;13.462;2022-09-12T00:51:33;16.10;99.90
9808;DHT22;4943;52.550;13.462;2022-09-12T00:54:07;16.10;99.90
9808;DHT22;4943;52.550;13.462;2022-09-12T00:56:39;16.10;99.90
9808;DHT22;4943;52.550;13.462;2022-09-12T00:59:13;16.10;99.90
9808;DHT22;4943;52.550;13.462;2022-09-12T01:01:43;16.10;99.90
9808;DHT22;4943;52.550;13.462;2022-09-12T01:04:15;16.10;99.90
9808;DHT22;4943;52.550;13.462;2022-09-12T01:06:46;16.10;99.90
9808;DHT22;4943;52.550;13.462;2022-09-12T01:09:18;16.00;99.90
9808;DHT22;4943;52.550;13.462;2022-09-12T01:11:47;16.00;99.90
9808;DHT22;4943;52.550;13.462;2022-09-12T01:14:16;16.00;99.90
9808;DHT22;4943;52.550;13.462;2022-09-12T01:16:45;16.00;99.90
9808;DHT22;4943;52.550;13.462;2022-09-12T01:19:29;16.00;99.90
9808;DHT22;4943;52.550;13.462;2022-09-12T01:22:15;16.00;99.90
9808;DHT22;4943;52.550;13.462;2022-09-12T01:24:53;16.00;99.90
9808;DHT22;4943;52.550;13.462;2022-09-12T01:27:32;15.90;99.90
9808;DHT22;4943;52.550;13.462;2022-09-12T01:30:30;15.90;99.90
9808;DHT22;4943;52.550;13.462;2022-09-12T01:33:13;15.80;99.90
9808;DHT22;4943;52.550;13.462;2022-09-12T01:35:48;15.80;99.90
9808;DHT22;4943;52.550;13.462;2022-09-12T01:38:24;15.70;99.90
9808;DHT22;4943;52.550;13.462;2022-09-12T01:40:58;15.70;99.90
9808;DHT22;4943;52.550;13.462;2022-09-12T01:43:32;15.70;99.90
9808;DHT22;4943;52.550;13.462;2022-09-12T01:46:08;15.70;99.90
9808;DHT22;4943;52.550;13.462;2022-09-12T01:48:40;15.70;99.90
9808;DHT22;4943;52.550;13.462;2022-09-12T01:51:15;15.70;99.90
9808;DHT22;4943;52.550;13.462;2022-09-12T01:53:49;15.70;99.90
9808;DHT22;4943;52.550;13.462;2022-09-12T01:56:21;15.70;99.90
9808;DHT22;4943;52.550;13.462;2022-09-12T01:58:57;15.70;99.90
9808;DHT22;4943;52.550;13.462;2022-09-12T02:01:30;15.70;99.90
9808;DHT22;4943;52.550;13.462;2022-09-12T02:04:03;15.70;99.90
9808;DHT22;4943;52.550;13.462;2022-09-12T02:06:37;15.60;99.90
9808;DHT22;4943;52.550;13.462;2022-09-12T02:09:11;15.60;99.90
9808;DHT22;4943;52.550;13.462;2022-09-12T02:11:42;15.60;99.90
9808;DHT22;4943;52.550;13.462;2022-09-12T02:14:14;15.60;99.90
9808;DHT22;4943;52.550;13.462;2022-09-12T02:16:47;15.60;99.90
9808;DHT22;4943;52.550;13.462;2022-09-12T02:19:20;15.60;99.90
9808;DHT22;4943;52.550;13.462;2022-09-12T02:21:52;15.60;99.90
9808;DHT22;4943;52.550;13.462;2022-09-12T02:24:22;15.60;99.90
9808;DHT22;4943;52.550;13.462;2022-09-12T02:26:54;15.60;99.90
9808;DHT22;4943;52.550;13.462;2022-09-12T02:29:24;15.60;99.90
9808;DHT22;4943;52.550;13.462;2022-09-12T02:31:57;15.60;99.90
9808;DHT22;4943;52.550;13.462;2022-09-12T02:34:33;15.50;99.90
9808;DHT22;4943;52.550;13.462;2022-09-12T02:37:11;15.50;99.90
9808;DHT22;4943;52.550;13.462;2022-09-12T02:39:43;15.50;99.90
9808;DHT22;4943;52.550;13.462;2022-09-12T02:42:11;15.50;99.90
9808;DHT22;4943;52.550;13.462;2022-09-12T02:44:40;15.50;99.90
9808;DHT22;4943;52.550;13.462;2022-09-12T02:47:13;15.50;99.90
9808;DHT22;4943;52.550;13.462;2022-09-12T02:49:42;15.50;99.90
9808;DHT22;4943;52.550;13.462;2022-09-12T02:52:10;15.50;99.90
9808;DHT22;4943;52.550;13.462;2022-09-12T02:54:39;15.50;99.90
9808;DHT22;4943;52.550;13.462;2022-09-12T02:57:15;15.50;99.90
9808;DHT22;4943;52.550;13.462;2022-09-12T02:59:49;15.50;99.90
9808;DHT22;4943;52.550;13.462;2022-09-12T03:02:29;15.50;99.90
9808;DHT22;4943;52.550;13.462;2022-09-12T03:05:23;15.50;99.90
9808;DHT22;4943;52.550;13.462;2022-09-12T03:08:14;15.40;99.90
9808;DHT22;4943;52.550;13.462;2022-09-12T03:11:08;15.40;99.90
9808;DHT22;4943;52.550;13.462;2022-09-12T03:13:48;15.40;99.90
9808;DHT22;4943;52.550;13.462;2022-09-12T03:16:24;15.40;99.90
9808;DHT22;4943;52.550;13.462;2022-09-12T03:19:02;15.40;99.90
9808;DHT22;4943;52.550;13.462;2022-09-12T03:21:37;15.40;99.90
9808;DHT22;4943;52.550;13.462;2022-09-12T03:24:11;15.30;99.90
9808;DHT22;4943;52.550;13.462;2022-09-12T03:26:43;15.30;99.90
9808;DHT22;4943;52.550;13.462;2022-09-12T03:29:15;15.20;99.90
9808;DHT22;4943;52.550;13.462;2022-09-12T03:31:49;15.20;99.90
9808;DHT22;4943;52.550;13.462;2022-09-12T03:34:20;15.20;99.90
9808;DHT22;4943;52.550;13.462;2022-09-12T03:36:48;15.20;99.90
9808;DHT22;4943;52.550;13.462;2022-09-12T03:39:17;15.20;99.90
9808;DHT22;4943;52.550;13.462;2022-09-12T03:41:46;15.20;99.90
9808;DHT22;4943;52.550;13.462;2022-09-12T03:44:14;15.20;99.90
9808;DHT22;4943;52.550;13.462;2022-09-12T03:46:42;15.20;99.90
9808;DHT22;4943;52.550;13.462;2022-09-12T03:49:10;15.20;99.90
9808;DHT22;4943;52.550;13.462;2022-09-12T03:51:40;15.10;99.90
9808;DHT22;4943;52.550;13.462;2022-09-12T03:54:09;15.20;99.90
9808;DHT22;4943;52.550;13.462;2022-09-12T03:56:37;15.20;99.90
9808;DHT22;4943;52.550;13.462;2022-09-12T03:59:06;15.20;99.90
9808;DHT22;4943;52.550;13.462;2022-09-12T04:01:35;15.20;99.90
9808;DHT22;4943;52.550;13.462;2022-09-12T04:04:03;15.20;99.90
9808;DHT22;4943;52.550;13.462;2022-09-12T04:06:31;15.20;99.90
9808;DHT22;4943;52.550;13.462;2022-09-12T04:09:01;15.10;99.90
9808;DHT22;4943;52.550;13.462;2022-09-12T04:11:29;15.10;99.90
9808;DHT22;4943;52.550;13.462;2022-09-12T04:13:58;15.20;99.90
9808;DHT22;4943;52.550;13.462;2022-09-12T04:16:26;15.20;99.90
9808;DHT22;4943;52.550;13.462;2022-09-12T04:18:54;15.20;99.90
9808;DHT22;4943;52.550;13.462;2022-09-12T04:21:22;15.20;99.90
9808;DHT22;4943;52.550;13.462;2022-09-12T04:23:50;15.20;99.90
9808;DHT22;4943;52.550;13.462;2022-09-12T04:26:20;15.20;99.90
9808;DHT22;4943;52.550;13.462;2022-09-12T04:28:52;15.10;99.90
9808;DHT22;4943;52.550;13.462;2022-09-12T04:31:22;15.10;99.90
9808;DHT22;4943;52.550;13.462;2022-09-12T04:33:52;15.10;99.90
9808;DHT22;4943;52.550;13.462;2022-09-12T04:36:21;15.00;99.90
9808;DHT22;4943;52.550;13.462;2022-09-12T04:38:49;15.00;99.90
9808;DHT22;4943;52.550;13.462;2022-09-12T04:41:22;15.00;99.90
9808;DHT22;4943;52.550;13.462;2022-09-12T04:43:52;15.10;99.90
9808;DHT22;4943;52.550;13.462;2022-09-12T04:46:21;15.10;99.90
9808;DHT22;4943;52.550;13.462;2022-09-12T04:48:49;15.10;99.90
9808;DHT22;4943;52.550;13.462;2022-09-12T04:51:24;15.10;99.90
9808;DHT22;4943;52.550;13.462;2022-09-12T04:53:56;15.10;99.90
9808;DHT22;4943;52.550;13.462;2022-09-12T04:56:26;15.10;99.90
9808;DHT22;4943;52.550;13.462;2022-09-12T04:58:56;15.10;99.90
9808;DHT22;4943;52.550;13.462;2022-09-12T05:01:25;15.10;99.90
9808;DHT22;4943;52.550;13.462;2022-09-12T05:03:54;15.10;99.90
9808;DHT22;4943;52.550;13.462;2022-09-12T05:06:24;15.20;99.90
9808;DHT22;4943;52.550;13.462;2022-09-12T05:08:54;15.20;99.90
9808;DHT22;4943;52.550;13.462;2022-09-12T05:11:26;15.20;99.90
9808;DHT22;4943;52.550;13.462;2022-09-12T05:14:15;15.20;99.90
9808;DHT22;4943;52.550;13.462;2022-09-12T05:16:43;15.20;99.90
9808;DHT22;4943;52.550;13.462;2022-09-12T05:19:15;15.20;99.90
9808;DHT22;4943;52.550;13.462;2022-09-12T05:21:44;15.30;99.90
9808;DHT22;4943;52.550;13.462;2022-09-12T05:24:12;15.30;99.90
9808;DHT22;4943;52.550;13.462;2022-09-12T05:26:41;15.30;99.90
9808;DHT22;4943;52.550;13.462;2022-09-12T05:29:09;15.30;99.90
9808;DHT22;4943;52.550;13.462;2022-09-12T05:31:39;15.40;99.90
9808;DHT22;4943;52.550;13.462;2022-09-12T05:34:07;15.30;99.90
9808;DHT22;4943;52.550;13.462;2022-09-12T05:36:36;15.30;99.90
9808;DHT22;4943;52.550;13.462;2022-09-12T05:39:04;15.40;99.90
9808;DHT22;4943;52.550;13.462;2022-09-12T05:41:33;15.40;99.90
9808;DHT22;4943;52.550;13.462;2022-09-12T05:44:05;15.40;99.90
9808;DHT22;4943;52.550;13.462;2022-09-12T05:46:36;15.40;99.90
9808;DHT22;4943;52.550;13.462;2022-09-12T05:49:07;15.40;99.90
9808;DHT22;4943;52.550;13.462;2022-09-12T05:51:37;15.40;99.90
9808;DHT22;4943;52.550;13.462;2022-09-12T05:54:08;15.50;99.90
9808;DHT22;4943;52.550;13.462;2022-09-12T05:56:38;15.50;99.90
9808;DHT22;4943;52.550;13.462;2022-09-12T05:59:10;15.50;99.90
9808;DHT22;4943;52.550;13.462;2022-09-12T06:01:39;15.60;99.90
9808;DHT22;4943;52.550;13.462;2022-09-12T06:04:08;15.60;99.90
9808;DHT22;4943;52.550;13.462;2022-09-12T06:06:38;15.60;99.90
9808;DHT22;4943;52.550;13.462;2022-09-12T06:09:08;15.60;99.90
9808;DHT22;4943;52.550;13.462;2022-09-12T06:11:37;15.60;99.90
9808;DHT22;4943;52.550;13.462;2022-09-12T06:14:09;15.60;99.90
9808;DHT22;4943;52.550;13.462;2022-09-12T06:16:37;15.60;99.90
9808;DHT22;4943;52.550;13.462;2022-09-12T06:19:07;15.70;99.90
9808;DHT22;4943;52.550;13.462;2022-09-12T06:21:38;15.70;99.90
9808;DHT22;4943;52.550;13.462;2022-09-12T06:24:07;15.80;99.90
9808;DHT22;4943;52.550;13.462;2022-09-12T06:26:35;15.80;99.90
9808;DHT22;4943;52.550;13.462;2022-09-12T06:29:03;15.90;99.90
9808;DHT22;4943;52.550;13.462;2022-09-12T06:31:35;15.90;99.90
9808;DHT22;4943;52.550;13.462;2022-09-12T06:34:05;15.90;99.90
9808;DHT22;4943;52.550;13.462;2022-09-12T06:36:36;15.90;99.90
9808;DHT22;4943;52.550;13.462;2022-09-12T06:39:07;16.00;99.90
9808;DHT22;4943;52.550;13.462;2022-09-12T06:41:35;16.00;99.90
9808;DHT22;4943;52.550;13.462;2022-09-12T06:44:11;16.00;99.90
9808;DHT22;4943;52.550;13.462;2022-09-12T06:46:41;16.00;99.90
9808;DHT22;4943;52.550;13.462;2022-09-12T06:49:10;16.10;99.90
9808;DHT22;4943;52.550;13.462;2022-09-12T06:51:38;16.10;99.90
9808;DHT22;4943;52.550;13.462;2022-09-12T06:54:08;16.10;99.90
9808;DHT22;4943;52.550;13.462;2022-09-12T06:56:38;16.20;99.90
9808;DHT22;4943;52.550;13.462;2022-09-12T06:59:07;16.20;99.90
9808;DHT22;4943;52.550;13.462;2022-09-12T07:01:35;16.30;99.90
9808;DHT22;4943;52.550;13.462;2022-09-12T07:04:05;16.30;99.90
9808;DHT22;4943;52.550;13.462;2022-09-12T07:06:35;16.30;99.90
9808;DHT22;4943;52.550;13.462;2022-09-12T07:09:06;16.30;99.90
9808;DHT22;4943;52.550;13.462;2022-09-12T07:11:36;16.30;99.90
9808;DHT22;4943;52.550;13.462;2022-09-12T07:14:05;16.40;99.90
9808;DHT22;4943;52.550;13.462;2022-09-12T07:16:34;16.40;99.90
9808;DHT22;4943;52.550;13.462;2022-09-12T07:19:06;16.50;99.90
9808;DHT22;4943;52.550;13.462;2022-09-12T07:21:35;16.50;99.90
9808;DHT22;4943;52.550;13.462;2022-09-12T07:24:06;16.60;99.90
9808;DHT22;4943;52.550;13.462;2022-09-12T07:26:36;16.60;99.90
9808;DHT22;4943;52.550;13.462;2022-09-12T07:29:05;16.60;99.90
9808;DHT22;4943;52.550;13.462;2022-09-12T07:31:54;16.70;99.90
9808;DHT22;4943;52.550;13.462;2022-09-12T07:34:24;16.70;99.90
9808;DHT22;4943;52.550;13.462;2022-09-12T07:36:52;16.80;99.90
9808;DHT22;4943;52.550;13.462;2022-09-12T07:39:20;16.80;99.90
9808;DHT22;4943;52.550;13.462;2022-09-12T07:41:48;16.90;99.90
9808;DHT22;4943;52.550;13.462;2022-09-12T07:44:17;16.90;99.90
9808;DHT22;4943;52.550;13.462;2022-09-12T07:46:45;16.90;99.90
9808;DHT22;4943;52.550;13.462;2022-09-12T07:49:13;17.00;99.90
9808;DHT22;4943;52.550;13.462;2022-09-12T07:51:42;17.00;99.90
9808;DHT22;4943;52.550;13.462;2022-09-12T07:54:10;17.10;99.90
9808;DHT22;4943;52.550;13.462;2022-09-12T07:56:38;17.10;99.90
9808;DHT22;4943;52.550;13.462;2022-09-12T07:59:07;17.10;99.90
9808;DHT22;4943;52.550;13.462;2022-09-12T08:01:36;17.10;99.90
9808;DHT22;4943;52.550;13.462;2022-09-12T08:04:05;17.20;99.90
9808;DHT22;4943;52.550;13.462;2022-09-12T08:06:34;17.20;99.90
9808;DHT22;4943;52.550;13.462;2022-09-12T08:09:04;17.20;99.90
9808;DHT22;4943;52.550;13.462;2022-09-12T08:11:34;17.20;99.90
9808;DHT22;4943;52.550;13.462;2022-09-12T08:14:02;17.20;99.90
9808;DHT22;4943;52.550;13.462;2022-09-12T08:16:31;17.30;99.90
9808;DHT22;4943;52.550;13.462;2022-09-12T08:19:01;17.40;99.90
9808;DHT22;4943;52.550;13.462;2022-09-12T08:21:31;17.50;99.90
9808;DHT22;4943;52.550;13.462;2022-09-12T08:24:01;17.60;99.90
9808;DHT22;4943;52.550;13.462;2022-09-12T08:26:32;17.70;99.90
9808;DHT22;4943;52.550;13.462;2022-09-12T08:29:01;17.70;99.90
9808;DHT22;4943;52.550;13.462;2022-09-12T08:31:30;17.70;99.90
9808;DHT22;4943;52.550;13.462;2022-09-12T08:34:03;17.80;99.90
9808;DHT22;4943;52.550;13.462;2022-09-12T08:36:31;17.80;99.90
9808;DHT22;4943;52.550;13.462;2022-09-12T08:39:02;18.00;99.90
9808;DHT22;4943;52.550;13.462;2022-09-12T08:41:36;18.00;99.90
9808;DHT22;4943;52.550;13.462;2022-09-12T08:44:22;18.10;99.90
9808;DHT22;4943;52.550;13.462;2022-09-12T08:47:06;18.10;99.90
9808;DHT22;4943;52.550;13.462;2022-09-12T08:49:44;18.20;99.90
9808;DHT22;4943;52.550;13.462;2022-09-12T08:52:17;18.10;99.90
9808;DHT22;4943;52.550;13.462;2022-09-12T08:54:46;18.10;99.90
9808;DHT22;4943;52.550;13.462;2022-09-12T08:57:17;18.20;99.90
9808;DHT22;4943;52.550;13.462;2022-09-12T08:59:45;18.20;99.90
9808;DHT22;4943;52.550;13.462;2022-09-12T09:02:34;18.20;99.90
9808;DHT22;4943;52.550;13.462;2022-09-12T09:05:11;18.20;99.90
9808;DHT22;4943;52.550;13.462;2022-09-12T09:07:58;18.30;99.90
9808;DHT22;4943;52.550;13.462;2022-09-12T09:10:31;18.30;99.90
9808;DHT22;4943;52.550;13.462;2022-09-12T09:13:08;18.40;99.90
9808;DHT22;4943;52.550;13.462;2022-09-12T09:16:05;18.50;99.90
9808;DHT22;4943;52.550;13.462;2022-09-12T09:18:36;18.50;99.90
9808;DHT22;4943;52.550;13.462;2022-09-12T09:21:13;18.50;99.90
9808;DHT22;4943;52.550;13.462;2022-09-12T09:23:48;18.60;99.90
9808;DHT22;4943;52.550;13.462;2022-09-12T09:26:21;18.60;99.90
9808;DHT22;4943;52.550;13.462;2022-09-12T09:28:58;18.60;99.90
9808;DHT22;4943;52.550;13.462;2022-09-12T09:31:32;18.60;99.90
9808;DHT22;4943;52.550;13.462;2022-09-12T09:34:01;18.60;99.90
9808;DHT22;4943;52.550;13.462;2022-09-12T09:36:39;18.60;99.90
9808;DHT22;4943;52.550;13.462;2022-09-12T09:39:17;18.60;99.90
9808;DHT22;4943;52.550;13.462;2022-09-12T09:41:59;18.70;99.90
9808;DHT22;4943;52.550;13.462;2022-09-12T09:44:32;18.80;99.90
9808;DHT22;4943;52.550;13.462;2022-09-12T09:47:00;19.00;99.90
9808;DHT22;4943;52.550;13.462;2022-09-12T09:49:29;19.00;99.90
9808;DHT22;4943;52.550;13.462;2022-09-12T09:51:58;19.10;99.90
9808;DHT22;4943;52.550;13.462;2022-09-12T09:54:33;19.10;99.90
9808;DHT22;4943;52.550;13.462;2022-09-12T09:57:02;19.10;99.90
9808;DHT22;4943;52.550;13.462;2022-09-12T09:59:32;19.10;99.90
9808;DHT22;4943;52.550;13.462;2022-09-12T10:02:08;19.10;99.90
9808;DHT22;4943;52.550;13.462;2022-09-12T10:04:53;19.10;99.90
9808;DHT22;4943;52.550;13.462;2022-09-12T10:07:24;19.10;99.90
9808;DHT22;4943;52.550;13.462;2022-09-12T10:10:05;19.10;99.90
9808;DHT22;4943;52.550;13.462;2022-09-12T10:12:34;19.20;99.90
9808;DHT22;4943;52.550;13.462;2022-09-12T10:15:16;19.30;99.90
9808;DHT22;4943;52.550;13.462;2022-09-12T10:17:47;19.40;99.90
9808;DHT22;4943;52.550;13.462;2022-09-12T10:20:30;19.50;99.90
9808;DHT22;4943;52.550;13.462;2022-09-12T10:23:00;19.70;99.90
9808;DHT22;4943;52.550;13.462;2022-09-12T10:25:29;19.80;99.90
9808;DHT22;4943;52.550;13.462;2022-09-12T10:27:58;19.90;99.90
9808;DHT22;4943;52.550;13.462;2022-09-12T10:30:29;20.00;99.90
9808;DHT22;4943;52.550;13.462;2022-09-12T10:33:05;20.00;99.90
9808;DHT22;4943;52.550;13.462;2022-09-12T10:35:43;20.00;99.90
9808;DHT22;4943;52.550;13.462;2022-09-12T10:38:16;20.00;99.90
9808;DHT22;4943;52.550;13.462;2022-09-12T10:40:55;19.90;99.90
9808;DHT22;4943;52.550;13.462;2022-09-12T10:43:29;19.90;99.90
9808;DHT22;4943;52.550;13.462;2022-09-12T10:46:21;19.90;99.90
9808;DHT22;4943;52.550;13.462;2022-09-12T10:48:51;20.00;99.90
9808;DHT22;4943;52.550;13.462;2022-09-12T10:51:38;19.90;99.90
9808;DHT22;4943;52.550;13.462;2022-09-12T10:54:09;19.90;99.90
9808;DHT22;4943;52.550;13.462;2022-09-12T10:56:49;19.90;99.90
9808;DHT22;4943;52.550;13.462;2022-09-12T10:59:24;19.90;99.90
9808;DHT22;4943;52.550;13.462;2022-09-12T11:02:00;19.80;99.90
9808;DHT22;4943;52.550;13.462;2022-09-12T11:04:46;19.80;99.90
9808;DHT22;4943;52.550;13.462;2022-09-12T11:07:34;19.90;99.90
9808;DHT22;4943;52.550;13.462;2022-09-12T11:10:18;19.90;99.90
9808;DHT22;4943;52.550;13.462;2022-09-12T11:13:03;20.00;99.90
9808;DHT22;4943;52.550;13.462;2022-09-12T11:15:43;20.10;99.90
9808;DHT22;4943;52.550;13.462;2022-09-12T11:18:43;20.20;99.90
9808;DHT22;4943;52.550;13.462;2022-09-12T11:21:25;20.50;99.90
9808;DHT22;4943;52.550;13.462;2022-09-12T11:24:13;20.70;99.90
9808;DHT22;4943;52.550;13.462;2022-09-12T11:26:50;20.90;99.90
9808;DHT22;4943;52.550;13.462;2022-09-12T11:29:28;21.10;99.90
9808;DHT22;4943;52.550;13.462;2022-09-12T11:32:42;21.20;99.90
9808;DHT22;4943;52.550;13.462;2022-09-12T11:35:22;21.40;99.90
9808;DHT22;4943;52.550;13.462;2022-09-12T11:38:08;21.50;99.90
9808;DHT22;4943;52.550;13.462;2022-09-12T11:40:43;21.60;99.90
9808;DHT22;4943;52.550;13.462;2022-09-12T11:43:22;21.70;99.90
9808;DHT22;4943;52.550;13.462;2022-09-12T11:45:52;21.70;99.90
9808;DHT22;4943;52.550;13.462;2022-09-12T11:48:31;21.70;99.90
9808;DHT22;4943;52.550;13.462;2022-09-12T11:51:23;21.70;99.90
9808;DHT22;4943;52.550;13.462;2022-09-12T11:54:01;21.70;99.90
9808;DHT22;4943;52.550;13.462;2022-09-12T11:56:30;21.70;99.90
9808;DHT22;4943;52.550;13.462;2022-09-12T11:59:03;21.70;99.90
9808;DHT22;4943;52.550;13.462;2022-09-12T12:01:39;21.70;99.90
9808;DHT22;4943;52.550;13.462;2022-09-12T12:04:18;21.60;99.90
9808;DHT22;4943;52.550;13.462;2022-09-12T12:06:55;21.50;99.90
9808;DHT22;4943;52.550;13.462;2022-09-12T12:09:24;21.50;99.90
9808;DHT22;4943;52.550;13.462;2022-09-12T12:11:55;21.40;99.90
9808;DHT22;4943;52.550;13.462;2022-09-12T12:14:30;21.30;99.90
9808;DHT22;4943;52.550;13.462;2022-09-12T12:16:59;21.20;99.90
9808;DHT22;4943;52.550;13.462;2022-09-12T12:19:32;21.20;99.90
9808;DHT22;4943;52.550;13.462;2022-09-12T12:22:14;21.10;99.90
9808;DHT22;4943;52.550;13.462;2022-09-12T12:24:56;21.10;99.90
9808;DHT22;4943;52.550;13.462;2022-09-12T12:27:45;21.10;99.90
9808;DHT22;4943;52.550;13.462;2022-09-12T12:33:51;21.20;99.90
9808;DHT22;4943;52.550;13.462;2022-09-12T12:36:30;21.30;99.90
9808;DHT22;4943;52.550;13.462;2022-09-12T12:42:59;21.50;99.90
9808;DHT22;4943;52.550;13.462;2022-09-12T12:46:08;21.60;99.90
9808;DHT22;4943;52.550;13.462;2022-09-12T12:48:47;21.70;99.90
9808;DHT22;4943;52.550;13.462;2022-09-12T12:51:46;21.70;99.90
9808;DHT22;4943;52.550;13.462;2022-09-12T12:54:29;21.80;99.90
9808;DHT22;4943;52.550;13.462;2022-09-12T12:57:03;21.80;99.90
9808;DHT22;4943;52.550;13.462;2022-09-12T12:59:35;21.90;99.90
9808;DHT22;4943;52.550;13.462;2022-09-12T13:02:03;21.90;99.90
9808;DHT22;4943;52.550;13.462;2022-09-12T13:04:35;21.90;99.90
9808;DHT22;4943;52.550;13.462;2022-09-12T13:07:04;22.10;99.90
9808;DHT22;4943;52.550;13.462;2022-09-12T13:09:42;22.20;99.90
9808;DHT22;4943;52.550;13.462;2022-09-12T13:12:17;22.30;99.90
9808;DHT22;4943;52.550;13.462;2022-09-12T13:14:49;22.30;99.90
9808;DHT22;4943;52.550;13.462;2022-09-12T13:17:22;22.50;99.90
9808;DHT22;4943;52.550;13.462;2022-09-12T13:20:00;22.60;99.90
9808;DHT22;4943;52.550;13.462;2022-09-12T13:22:51;22.60;99.90
9808;DHT22;4943;52.550;13.462;2022-09-12T13:25:25;22.70;99.90
9808;DHT22;4943;52.550;13.462;2022-09-12T13:28:01;22.80;99.90
9808;DHT22;4943;52.550;13.462;2022-09-12T13:30:32;22.80;99.90
9808;DHT22;4943;52.550;13.462;2022-09-12T13:33:10;22.80;99.90
9808;DHT22;4943;52.550;13.462;2022-09-12T13:36:03;22.70;99.90
9808;DHT22;4943;52.550;13.462;2022-09-12T13:38:44;22.70;99.90
9808;DHT22;4943;52.550;13.462;2022-09-12T13:41:30;22.80;99.90
9808;DHT22;4943;52.550;13.462;2022-09-12T13:44:02;22.90;99.90
9808;DHT22;4943;52.550;13.462;2022-09-12T13:46:32;22.90;99.90
9808;DHT22;4943;52.550;13.462;2022-09-12T13:49:06;22.90;99.90
9808;DHT22;4943;52.550;13.462;2022-09-12T13:51:37;23.00;99.90
9808;DHT22;4943;52.550;13.462;2022-09-12T13:54:06;23.10;99.90
9808;DHT22;4943;52.550;13.462;2022-09-12T13:56:46;23.20;99.90
9808;DHT22;4943;52.550;13.462;2022-09-12T13:59:14;23.20;99.90
9808;DHT22;4943;52.550;13.462;2022-09-12T14:01:45;23.30;99.90
9808;DHT22;4943;52.550;13.462;2022-09-12T14:04:16;23.30;99.90
9808;DHT22;4943;52.550;13.462;2022-09-12T14:07:10;23.30;99.90
9808;DHT22;4943;52.550;13.462;2022-09-12T14:09:40;23.40;99.90
9808;DHT22;4943;52.550;13.462;2022-09-12T14:12:17;23.40;99.90
9808;DHT22;4943;52.550;13.462;2022-09-12T14:14:50;23.40;99.90
9808;DHT22;4943;52.550;13.462;2022-09-12T14:17:24;23.40;99.90
9808;DHT22;4943;52.550;13.462;2022-09-12T14:19:56;23.40;99.90
9808;DHT22;4943;52.550;13.462;2022-09-12T14:22:26;23.40;99.90
9808;DHT22;4943;52.550;13.462;2022-09-12T14:24:56;23.40;99.90
9808;DHT22;4943;52.550;13.462;2022-09-12T14:27:30;23.40;99.90
9808;DHT22;4943;52.550;13.462;2022-09-12T14:30:02;23.40;99.90
9808;DHT22;4943;52.550;13.462;2022-09-12T14:32:32;23.40;99.90
9808;DHT22;4943;52.550;13.462;2022-09-12T14:35:05;23.40;99.90
9808;DHT22;4943;52.550;13.462;2022-09-12T14:37:33;23.40;99.90
9808;DHT22;4943;52.550;13.462;2022-09-12T14:40:02;23.30;99.90
9808;DHT22;4943;52.550;13.462;2022-09-12T14:42:32;23.30;99.90
9808;DHT22;4943;52.550;13.462;2022-09-12T14:45:08;23.30;99.90
9808;DHT22;4943;52.550;13.462;2022-09-12T14:47:42;23.30;99.90
9808;DHT22;4943;52.550;13.462;2022-09-12T14:50:16;23.30;99.90
9808;DHT22;4943;52.550;13.462;2022-09-12T14:52:45;23.30;99.90
9808;DHT22;4943;52.550;13.462;2022-09-12T14:55:22;23.20;99.90
9808;DHT22;4943;52.550;13.462;2022-09-12T14:58:14;23.30;99.90
9808;DHT22;4943;52.550;13.462;2022-09-12T15:00:52;23.20;99.90
9808;DHT22;4943;52.550;13.462;2022-09-12T15:03:26;23.20;99.90
9808;DHT22;4943;52.550;13.462;2022-09-12T15:05:55;23.10;99.90
9808;DHT22;4943;52.550;13.462;2022-09-12T15:08:24;23.10;99.90
9808;DHT22;4943;52.550;13.462;2022-09-12T15:10:53;23.10;99.90
9808;DHT22;4943;52.550;13.462;2022-09-12T15:13:24;23.10;99.90
9808;DHT22;4943;52.550;13.462;2022-09-12T15:15:55;23.10;99.90
9808;DHT22;4943;52.550;13.462;2022-09-12T15:18:25;23.10;99.90
9808;DHT22;4943;52.550;13.462;2022-09-12T15:20:55;23.00;99.90
9808;DHT22;4943;52.550;13.462;2022-09-12T15:23:30;23.00;99.90
9808;DHT22;4943;52.550;13.462;2022-09-12T15:25:59;23.00;99.90
9808;DHT22;4943;52.550;13.462;2022-09-12T15:28:30;23.00;99.90
9808;DHT22;4943;52.550;13.462;2022-09-12T15:31:04;23.00;99.90
9808;DHT22;4943;52.550;13.462;2022-09-12T15:33:33;22.90;99.90
9808;DHT22;4943;52.550;13.462;2022-09-12T15:36:02;22.90;99.90
9808;DHT22;4943;52.550;13.462;2022-09-12T15:38:30;22.90;99.90
9808;DHT22;4943;52.550;13.462;2022-09-12T15:40:58;22.90;99.90
9808;DHT22;4943;52.550;13.462;2022-09-12T15:43:30;22.80;99.90
9808;DHT22;4943;52.550;13.462;2022-09-12T15:45:58;22.80;99.90
9808;DHT22;4943;52.550;13.462;2022-09-12T15:48:30;22.80;99.90
9808;DHT22;4943;52.550;13.462;2022-09-12T15:50:58;22.80;99.90
9808;DHT22;4943;52.550;13.462;2022-09-12T15:53:27;22.70;99.90
9808;DHT22;4943;52.550;13.462;2022-09-12T15:55:56;22.70;99.90
9808;DHT22;4943;52.550;13.462;2022-09-12T15:58:24;22.60;99.90
9808;DHT22;4943;52.550;13.462;2022-09-12T16:00:55;22.60;99.90
9808;DHT22;4943;52.550;13.462;2022-09-12T16:03:24;22.60;99.90
9808;DHT22;4943;52.550;13.462;2022-09-12T16:05:55;22.50;99.90
9808;DHT22;4943;52.550;13.462;2022-09-12T16:08:24;22.50;99.90
9808;DHT22;4943;52.550;13.462;2022-09-12T16:10:54;22.40;99.90
9808;DHT22;4943;52.550;13.462;2022-09-12T16:13:23;22.40;99.90
9808;DHT22;4943;52.550;13.462;2022-09-12T16:15:56;22.40;99.90
9808;DHT22;4943;52.550;13.462;2022-09-12T16:18:26;22.40;99.90
9808;DHT22;4943;52.550;13.462;2022-09-12T16:20:55;22.30;99.90
9808;DHT22;4943;52.550;13.462;2022-09-12T16:23:24;22.20;99.90
9808;DHT22;4943;52.550;13.462;2022-09-12T16:25:56;22.20;99.90
9808;DHT22;4943;52.550;13.462;2022-09-12T16:28:25;22.10;99.90
9808;DHT22;4943;52.550;13.462;2022-09-12T16:30:54;22.10;99.90